Aeroporto :
LOGIN :

Iscrizione | Disclaimer

   EN    FR    IT 

 










Sommario :    VFR   VFR Marginale   IFR   IFR Intensivo   IFR Molto Intensivo
Visibilità : 
Base nubi : 
>= 8 km
>= 3000ft
5 / 8 km
1000 / 3000 ft
1500m / 5 km
500 / 1000 ft
800 / 1500m
200 / 500 ft
< 800m
< 200 ft
Simboli :   Temporali  Nebbia  Neve Forte  Precipitazioni Forti  Vento > 20 kt
SIGMETs :   Varie  Temporali  Ghiacco  Turbolenza  Onda orograficha  Ceneri Vulcaniche







- Altitudine del aeroporto : 1768 ft


LEHC - Huesca Pirineos

ULTIMO METAR :
  • 100030Z AUTO 25017KT 9999 NCD 08/04 Q1028

METARs OBSOLETI :
  • 100000Z AUTO 26019KT 9999 NCD 09/04 Q1028
  • 092330Z AUTO 27017KT 9999 NCD 08/04 Q1028
  • 092300Z AUTO 28020KT 9999 NCD 09/04 Q1028
  • 092230Z AUTO 25016KT 210V280 9999 NCD 09/04 Q1029
  • 092200Z AUTO 27016G28KT 230V300 9999 NCD 09/03 Q1028

TAF TAF LEHC
Valido dal 09 a 17 ore il 10 a 15 ore UTC


091651Z 0917/1015 27020KT 9999 FEW030 TX/1014Z TN04/1006Z
TEMPO 0915/0918 29025G35KT
TEMPO 0918/1000 30015G25KT
BECMG 1000/1002 28008KT
Nessun NOTAM noto per questo aeroporto.



MetMap, La meteo Aeronautica in un colpo d'occhio ! - Copyright ORBIFLY Dicembre 2007 - Disclaimer

ORBIFLY MET'MAP TEAM :

Programmazione e sviluppo : Alexandra Zaïnal
Concezione e sviluppo : Baudouin d'Aumeries
Co-Programmazione e sviluppo : Marc-Olivier Méhu
Supporto tecnico e logistico : Manuel Goepfert
Aiuto per la traduzione : Arnaldo La Scala

Contatto : metmap@orbifly.com




FONTI E CREDITI :

   NOAA